createdAt,value
2024-04-23T00:00:54.885Z,0.27
2024-04-23T00:03:57.361Z,0.27
2024-04-23T00:07:01.984Z,0.19
2024-04-23T00:10:04.648Z,0.33
2024-04-23T00:13:07.091Z,0.43
2024-04-23T00:16:09.594Z,0.43
2024-04-23T00:19:12.089Z,0.45
2024-04-23T00:22:14.477Z,0.43
2024-04-23T00:25:16.948Z,0.39
2024-04-23T00:28:19.479Z,0.41
2024-04-23T00:31:23.771Z,0.43
2024-04-23T00:34:26.442Z,0.29
2024-04-23T00:37:28.932Z,0.22
2024-04-23T00:40:32.382Z,0.25
2024-04-23T00:43:34.966Z,0.18
2024-04-23T00:46:40.221Z,0.15
2024-04-23T00:49:43.054Z,0.26
2024-04-23T00:52:45.831Z,0.32
2024-04-23T00:55:48.385Z,0.21
2024-04-23T00:58:50.915Z,0.27
2024-04-23T01:01:54.430Z,0.26
2024-04-23T01:04:57.136Z,0.23
2024-04-23T01:07:59.690Z,0.05
2024-04-23T01:11:03.802Z,0.23
2024-04-23T01:14:07.003Z,0.27
2024-04-23T01:17:11.371Z,0.21
2024-04-23T01:20:14.797Z,0.23
2024-04-23T01:23:23.516Z,0.14
2024-04-23T01:26:27.205Z,0.16
2024-04-23T01:29:35.939Z,0.10
2024-04-23T01:32:40.941Z,0.25
2024-04-23T01:35:44.026Z,0.21
2024-04-23T01:38:47.968Z,0.43
2024-04-23T01:41:51.016Z,0.31
2024-04-23T01:44:54.901Z,0.55
2024-04-23T01:47:57.914Z,0.62
2024-04-23T01:51:00.542Z,0.57
2024-04-23T01:54:03.294Z,0.67
2024-04-23T01:57:09.065Z,0.49
2024-04-23T02:00:16.537Z,0.62
2024-04-23T02:03:21.747Z,0.54
2024-04-23T02:06:29.103Z,0.53
2024-04-23T02:09:32.629Z,0.40
2024-04-23T02:12:37.773Z,0.28
2024-04-23T02:15:40.465Z,0.30
2024-04-23T02:18:43.118Z,0.50
2024-04-23T02:21:45.595Z,0.49
2024-04-23T02:24:48.111Z,0.37
2024-04-23T02:27:50.857Z,0.54
2024-04-23T02:30:53.404Z,0.50
2024-04-23T02:33:55.840Z,0.52
2024-04-23T02:36:58.310Z,0.45
2024-04-23T02:40:03.537Z,0.29
2024-04-23T02:43:07.795Z,0.30
2024-04-23T02:46:10.279Z,0.31
2024-04-23T02:49:12.932Z,0.39
2024-04-23T02:52:15.350Z,0.45
2024-04-23T02:55:17.763Z,0.62
2024-04-23T02:58:20.190Z,0.71
2024-04-23T03:01:22.689Z,0.81
2024-04-23T03:04:25.309Z,0.71
2024-04-23T03:07:27.722Z,0.82
2024-04-23T03:10:30.243Z,0.91
2024-04-23T03:13:32.760Z,0.98
2024-04-23T03:16:36.803Z,0.96
2024-04-23T03:19:39.331Z,0.87
2024-04-23T03:22:41.882Z,1.03
2024-04-23T03:25:44.375Z,0.91
2024-04-23T03:28:46.867Z,0.93
2024-04-23T03:32:00.631Z,0.77
2024-04-23T03:35:03.322Z,0.95
2024-04-23T03:38:06.925Z,1.04
2024-04-23T03:41:11.749Z,1.03
2024-04-23T03:44:14.253Z,1.15
2024-04-23T03:47:16.722Z,1.02
2024-04-23T03:50:19.209Z,0.99
2024-04-23T03:53:21.619Z,1.05
2024-04-23T03:56:24.184Z,1.04
2024-04-23T03:59:29.495Z,1.09
2024-04-23T04:02:50.945Z,1.02
2024-04-23T04:06:05.620Z,0.95
2024-04-23T04:09:08.428Z,1.00
2024-04-23T04:12:10.888Z,1.10
2024-04-23T04:15:13.464Z,1.13
2024-04-23T04:18:16.004Z,1.13
2024-04-23T04:21:18.475Z,1.18
2024-04-23T04:24:20.858Z,1.33
2024-04-23T04:27:23.416Z,1.28
2024-04-23T04:30:25.853Z,1.27
2024-04-23T04:33:28.367Z,1.25
2024-04-23T04:36:30.877Z,1.31
2024-04-23T04:39:38.572Z,1.26
2024-04-23T04:42:41.120Z,1.33
2024-04-23T04:45:46.745Z,1.11
2024-04-23T04:48:49.291Z,1.33
2024-04-23T04:51:51.833Z,1.37
2024-04-23T04:54:54.403Z,1.44
2024-04-23T04:57:56.908Z,1.33
2024-04-23T05:00:59.523Z,1.64
2024-04-23T05:04:04.462Z,1.62
2024-04-23T05:07:07.042Z,1.60
2024-04-23T05:10:09.577Z,1.75
2024-04-23T05:13:32.352Z,2.04
2024-04-23T05:16:35.049Z,2.07
2024-04-23T05:19:37.664Z,2.04
2024-04-23T05:22:40.294Z,2.22
2024-04-23T05:25:43.114Z,2.46
2024-04-23T05:28:45.790Z,2.43
2024-04-23T05:32:07.356Z,2.62
2024-04-23T05:35:09.934Z,2.59
2024-04-23T05:38:15.133Z,2.60
2024-04-23T05:41:19.302Z,2.16
2024-04-23T05:44:23.588Z,2.36
2024-04-23T05:47:26.884Z,2.50
2024-04-23T05:51:07.315Z,2.96
2024-04-23T05:54:47.694Z,3.10
2024-04-23T05:57:52.714Z,3.23
2024-04-23T06:01:00.354Z,3.34
2024-04-23T06:04:05.588Z,3.44
2024-04-23T06:07:09.267Z,3.50
2024-04-23T06:10:13.512Z,3.78
2024-04-23T06:13:16.994Z,4.07
2024-04-23T06:16:19.923Z,4.10
2024-04-23T06:19:28.226Z,4.51
2024-04-23T06:22:40.239Z,4.78
2024-04-23T06:25:43.021Z,5.03
2024-04-23T06:28:45.624Z,5.13
2024-04-23T06:31:50.167Z,6.91
2024-04-23T06:34:52.884Z,8.92
2024-04-23T06:37:55.367Z,9.32
2024-04-23T06:41:03.129Z,10.12
2024-04-23T06:44:05.674Z,10.05
2024-04-23T06:47:08.197Z,9.35
2024-04-23T06:50:10.719Z,9.08
2024-04-23T06:53:13.465Z,8.66
2024-04-23T06:56:16.000Z,8.30
2024-04-23T06:59:18.656Z,8.27
2024-04-23T07:02:21.186Z,9.02
2024-04-23T07:05:23.775Z,10.83
2024-04-23T07:08:26.299Z,12.19
2024-04-23T07:11:28.893Z,12.56
2024-04-23T07:14:31.531Z,13.71
2024-04-23T07:17:34.157Z,13.20
2024-04-23T07:20:37.387Z,12.01
2024-04-23T07:23:40.572Z,10.74
2024-04-23T07:26:43.765Z,12.36
2024-04-23T07:29:46.230Z,14.17
2024-04-23T07:32:53.896Z,13.46
2024-04-23T07:35:58.596Z,12.22
2024-04-23T07:39:01.076Z,12.60
2024-04-23T07:42:03.667Z,13.67
2024-04-23T07:45:07.230Z,13.89
2024-04-23T07:48:10.092Z,13.28
2024-04-23T07:51:12.637Z,12.84
2024-04-23T07:54:15.413Z,11.54
2024-04-23T07:57:19.398Z,10.74
2024-04-23T08:00:24.493Z,10.66
2024-04-23T08:03:27.062Z,9.69
2024-04-23T08:06:29.580Z,10.20
2024-04-23T08:09:32.073Z,11.76
2024-04-23T08:12:34.571Z,12.11
2024-04-23T08:15:37.091Z,12.81
2024-04-23T08:18:39.882Z,12.59
2024-04-23T08:21:43.529Z,11.73
2024-04-23T08:24:46.640Z,11.41
2024-04-23T08:28:04.126Z,12.90
2024-04-23T08:31:06.590Z,12.85
2024-04-23T08:34:09.082Z,12.59
2024-04-23T08:37:11.593Z,13.35
2024-04-23T08:40:14.178Z,14.39
2024-04-23T08:43:26.458Z,12.19
2024-04-23T08:46:29.199Z,12.10
2024-04-23T08:49:35.379Z,12.27
2024-04-23T09:01:14.536Z,14.36
2024-04-23T09:04:56.141Z,14.06
2024-04-23T09:08:22.350Z,14.89
2024-04-23T09:12:24.175Z,13.49
2024-04-23T09:16:27.182Z,14.28
2024-04-23T09:19:39.424Z,13.99
2024-04-23T09:22:57.591Z,14.22
2024-04-23T09:26:18.408Z,13.34
2024-04-23T09:29:33.518Z,15.76
2024-04-23T09:32:50.175Z,16.46
2024-04-23T09:36:15.429Z,16.13
2024-04-23T09:39:22.741Z,16.63
2024-04-23T09:42:31.195Z,17.62
2024-04-23T09:45:36.539Z,17.04
2024-04-23T09:48:46.416Z,17.97
2024-04-23T09:51:52.441Z,18.07
2024-04-23T09:54:59.666Z,16.76
2024-04-23T09:58:04.854Z,17.24
2024-04-23T10:01:10.188Z,18.66
2024-04-23T10:04:22.435Z,18.41
2024-04-23T10:07:30.128Z,18.93
2024-04-23T10:10:49.158Z,19.36
2024-04-23T10:13:59.580Z,19.24
2024-04-23T10:17:18.234Z,17.81
2024-04-23T10:20:25.230Z,18.29
2024-04-23T10:23:32.756Z,19.64
2024-04-23T10:26:47.053Z,20.17
2024-04-23T10:29:50.912Z,19.94
2024-04-23T10:33:00.564Z,19.90
2024-04-23T10:36:03.488Z,20.16
2024-04-23T10:39:07.573Z,20.14
2024-04-23T10:42:10.403Z,19.98
2024-04-23T10:45:15.590Z,19.93
2024-04-23T10:48:28.738Z,18.77
2024-04-23T10:51:37.543Z,18.23
2024-04-23T10:54:48.827Z,19.44
2024-04-23T10:57:54.726Z,18.17
2024-04-23T11:01:04.311Z,19.02
2024-04-23T11:04:09.674Z,18.93
2024-04-23T11:07:25.687Z,19.66
2024-04-23T11:10:31.273Z,20.18
2024-04-23T11:13:44.405Z,20.05
2024-04-23T11:21:09.000Z,18.36
2024-04-23T11:24:15.872Z,18.82
2024-04-23T11:27:22.910Z,16.49
2024-04-23T11:30:29.275Z,18.25
2024-04-23T11:33:44.653Z,18.92
2024-04-23T11:37:00.543Z,18.19
2024-04-23T11:40:09.675Z,17.51
2024-04-23T11:43:20.603Z,18.55
2024-04-23T11:46:40.948Z,16.71
2024-04-23T11:50:22.657Z,18.91
2024-04-23T11:54:16.118Z,19.41
2024-04-23T11:57:54.362Z,18.81
2024-04-23T12:00:57.863Z,16.10
2024-04-23T12:04:01.084Z,17.76
2024-04-23T12:07:17.618Z,17.23
2024-04-23T12:10:34.714Z,15.92
2024-04-23T12:13:56.702Z,14.52
2024-04-23T12:17:09.942Z,14.14
2024-04-23T12:20:24.404Z,13.90
2024-04-23T12:24:07.165Z,12.84
2024-04-23T12:27:17.704Z,13.86
2024-04-23T12:30:29.471Z,14.46
2024-04-23T12:34:00.541Z,15.19
2024-04-23T12:37:10.562Z,14.32
2024-04-23T12:40:22.119Z,14.80
2024-04-23T12:43:33.884Z,13.69
2024-04-23T12:46:51.196Z,13.97
2024-04-23T12:49:58.220Z,14.60
2024-04-23T12:53:16.077Z,14.59
2024-04-23T12:56:39.735Z,13.30
2024-04-23T13:00:03.351Z,13.83
2024-04-23T13:03:29.909Z,13.99
2024-04-23T13:06:35.607Z,14.30
2024-04-23T13:09:43.131Z,13.39
2024-04-23T13:12:48.083Z,13.33
2024-04-23T13:15:55.346Z,13.70
2024-04-23T13:18:59.238Z,13.40
2024-04-23T13:22:05.023Z,13.77
2024-04-23T13:25:11.068Z,13.56
2024-04-23T13:28:15.445Z,13.88
2024-04-23T13:31:19.861Z,13.44
2024-04-23T13:34:22.854Z,13.49
2024-04-23T13:37:30.172Z,13.18
2024-04-23T13:40:38.250Z,13.24
2024-04-23T13:43:50.185Z,13.32
2024-04-23T13:46:58.060Z,13.34
2024-04-23T13:50:00.757Z,13.82
2024-04-23T13:53:03.478Z,13.80
2024-04-23T13:56:12.927Z,12.61
2024-04-23T13:59:21.891Z,12.81
2024-04-23T14:02:27.224Z,12.20
2024-04-23T14:05:32.862Z,11.71
2024-04-23T14:08:36.043Z,12.45
2024-04-23T14:11:47.115Z,12.69
2024-04-23T14:14:59.744Z,12.89
2024-04-23T14:18:05.308Z,12.22
2024-04-23T14:21:08.374Z,12.46
2024-04-23T14:24:56.450Z,12.48
2024-04-23T14:28:06.854Z,13.09
2024-04-23T14:31:27.365Z,13.03
2024-04-23T14:34:30.159Z,12.29
2024-04-23T14:37:38.785Z,12.06
2024-04-23T14:41:04.615Z,12.46
2024-04-23T14:44:21.611Z,12.28
2024-04-23T14:47:34.502Z,12.47
2024-04-23T14:50:40.329Z,12.31
2024-04-23T14:53:53.084Z,12.65
2024-04-23T14:57:18.878Z,12.94
2024-04-23T15:00:27.233Z,12.77
2024-04-23T15:03:32.781Z,12.22
2024-04-23T15:06:35.366Z,12.30
2024-04-23T15:09:37.823Z,12.54
2024-04-23T15:12:40.345Z,12.38
2024-04-23T15:15:42.821Z,12.68
2024-04-23T15:18:45.388Z,12.74
2024-04-23T15:21:47.927Z,12.40
2024-04-23T15:24:51.168Z,12.05
2024-04-23T15:27:54.087Z,11.69
2024-04-23T15:31:06.875Z,11.75
2024-04-23T15:34:09.884Z,11.95
2024-04-23T15:37:12.384Z,11.43
2024-04-23T15:40:14.836Z,11.73
2024-04-23T15:43:17.314Z,11.64
2024-04-23T15:46:20.478Z,11.43
2024-04-23T15:49:24.137Z,11.41
2024-04-23T15:52:26.569Z,11.47
2024-04-23T15:55:28.995Z,11.57
2024-04-23T15:58:32.070Z,11.45
2024-04-23T16:01:36.131Z,11.51
2024-04-23T16:04:39.409Z,11.33
2024-04-23T16:07:42.495Z,11.30
2024-04-23T16:10:45.616Z,11.16
2024-04-23T16:13:48.650Z,11.12
2024-04-23T16:16:51.629Z,11.08
2024-04-23T16:19:54.205Z,10.76
2024-04-23T16:22:59.328Z,10.92
2024-04-23T16:26:08.380Z,10.80
2024-04-23T16:29:11.654Z,10.51
2024-04-23T16:32:14.176Z,10.49
2024-04-23T16:35:17.196Z,10.33
2024-04-23T16:38:20.241Z,10.20
2024-04-23T16:41:23.084Z,10.14
2024-04-23T16:44:25.589Z,10.25
2024-04-23T16:47:29.856Z,10.15
2024-04-23T16:50:34.700Z,10.08
2024-04-23T16:53:40.595Z,10.07
2024-04-23T16:56:43.113Z,10.04
2024-04-23T16:59:46.337Z,10.00
2024-04-23T17:02:48.796Z,9.87
2024-04-23T17:05:51.435Z,9.86
2024-04-23T17:08:53.948Z,9.71
2024-04-23T17:11:56.446Z,9.73
2024-04-23T17:14:59.354Z,9.72
2024-04-23T17:18:02.051Z,9.71
2024-04-23T17:21:14.989Z,9.68
2024-04-23T17:24:17.591Z,9.65
2024-04-23T17:27:20.128Z,9.66
2024-04-23T17:30:23.301Z,9.64
2024-04-23T17:33:27.019Z,9.68
2024-04-23T17:36:33.482Z,9.71
2024-04-23T17:39:38.705Z,9.72
2024-04-23T17:42:44.697Z,9.70
2024-04-23T17:45:48.720Z,9.73
2024-04-23T17:48:54.415Z,9.71
2024-04-23T17:51:57.896Z,9.55
2024-04-23T17:55:01.352Z,9.61
2024-04-23T17:58:08.116Z,9.64
2024-04-23T18:01:14.177Z,9.58
2024-04-23T18:04:19.723Z,9.76
2024-04-23T18:07:29.675Z,9.64
2024-04-23T18:10:37.028Z,9.57
2024-04-23T18:13:41.182Z,9.62
2024-04-23T18:16:44.328Z,9.54
2024-04-23T18:19:53.117Z,9.51
2024-04-23T18:23:06.805Z,9.47
2024-04-23T18:26:12.710Z,9.47
2024-04-23T18:29:18.209Z,9.30
2024-04-23T18:32:26.559Z,9.21
2024-04-23T18:35:30.844Z,9.10
2024-04-23T18:38:43.110Z,9.08
2024-04-23T18:41:46.900Z,8.94
2024-04-23T18:44:52.259Z,8.95
2024-04-23T18:48:00.137Z,8.98
2024-04-23T18:51:12.668Z,8.98
2024-04-23T18:54:19.371Z,8.99
2024-04-23T18:57:29.389Z,8.92
2024-04-23T19:00:41.572Z,8.88
2024-04-23T19:03:52.956Z,8.50
2024-04-23T19:06:59.465Z,8.49
2024-04-23T19:10:03.339Z,8.64
2024-04-23T19:13:12.466Z,8.51
2024-04-23T19:16:15.934Z,8.55
2024-04-23T19:19:20.244Z,8.41
2024-04-23T19:22:26.619Z,8.34
2024-04-23T19:25:33.864Z,8.26
2024-04-23T19:28:40.272Z,8.27
2024-04-23T19:31:43.619Z,8.27
2024-04-23T19:34:48.107Z,8.23
2024-04-23T19:37:59.325Z,8.22
2024-04-23T19:41:18.959Z,8.08
2024-04-23T19:44:31.219Z,8.14
2024-04-23T19:47:46.123Z,8.09
2024-04-23T19:50:58.398Z,8.18
2024-04-23T19:54:03.957Z,8.13
2024-04-23T19:57:10.184Z,8.18
2024-04-23T20:00:20.690Z,8.18
2024-04-23T20:03:36.539Z,7.92
2024-04-23T20:06:42.225Z,7.92
2024-04-23T20:09:53.622Z,8.01
2024-04-23T20:12:58.226Z,8.00
2024-04-23T20:16:01.991Z,7.92
2024-04-23T20:19:05.122Z,7.85
2024-04-23T20:22:08.931Z,7.82
2024-04-23T20:25:14.413Z,7.86
2024-04-23T20:28:17.245Z,7.87
2024-04-23T20:31:36.666Z,7.73
2024-04-23T20:34:45.025Z,7.64
2024-04-23T20:37:49.126Z,7.61
2024-04-23T20:41:07.145Z,7.60
2024-04-23T20:45:04.162Z,7.62
2024-04-23T20:48:08.130Z,7.31
2024-04-23T20:51:13.165Z,7.39
2024-04-23T20:54:16.362Z,7.13
2024-04-23T20:57:21.207Z,7.34
2024-04-23T21:00:23.812Z,7.37
2024-04-23T21:03:26.411Z,7.31
2024-04-23T21:06:29.212Z,7.22
2024-04-23T21:09:31.628Z,7.09
2024-04-23T21:12:34.137Z,7.13
2024-04-23T21:15:37.664Z,7.13
2024-04-23T21:18:41.902Z,7.19
2024-04-23T21:21:44.367Z,6.99
2024-04-23T21:24:46.837Z,6.77
2024-04-23T21:27:49.306Z,6.42
2024-04-23T21:30:59.587Z,6.63
2024-04-23T21:34:02.076Z,6.50
2024-04-23T21:37:04.527Z,6.46
2024-04-23T21:40:07.479Z,6.30
2024-04-23T21:43:10.063Z,6.30
2024-04-23T21:46:15.930Z,6.24
2024-04-23T21:49:18.447Z,6.25
2024-04-23T21:52:31.287Z,6.28
2024-04-23T21:55:42.118Z,6.12
2024-04-23T21:58:44.593Z,6.03
2024-04-23T22:01:47.147Z,5.97
2024-04-23T22:04:49.715Z,6.16
2024-04-23T22:07:52.210Z,6.16
2024-04-23T22:10:54.894Z,6.08
2024-04-23T22:13:57.500Z,6.14
2024-04-23T22:17:00.034Z,6.13
2024-04-23T22:20:02.676Z,6.18
2024-04-23T22:23:05.303Z,6.20
2024-04-23T22:26:07.885Z,6.26
2024-04-23T22:29:10.380Z,6.11
2024-04-23T22:32:12.898Z,6.03
2024-04-23T22:35:15.603Z,6.02
2024-04-23T22:38:18.121Z,5.99
2024-04-23T22:41:20.810Z,5.99
2024-04-23T22:44:23.443Z,5.99
2024-04-23T22:47:26.300Z,5.85
2024-04-23T22:50:28.878Z,5.67
2024-04-23T22:53:31.621Z,5.82
2024-04-23T22:56:34.065Z,5.76
2024-04-23T22:59:36.489Z,5.75
2024-04-23T23:02:39.013Z,5.67
2024-04-23T23:05:41.511Z,5.75
2024-04-23T23:08:43.910Z,5.73
2024-04-23T23:11:46.412Z,5.59
2024-04-23T23:14:48.843Z,5.61
2024-04-23T23:17:51.671Z,5.50
2024-04-23T23:20:54.848Z,5.42
2024-04-23T23:23:57.268Z,5.38
2024-04-23T23:26:59.707Z,5.37
2024-04-23T23:30:02.184Z,5.46
2024-04-23T23:33:05.071Z,5.51
2024-04-23T23:36:07.740Z,5.46
2024-04-23T23:39:10.109Z,5.44
2024-04-23T23:42:12.557Z,5.34
2024-04-23T23:45:14.987Z,5.47
2024-04-23T23:48:17.666Z,5.40
2024-04-23T23:51:20.216Z,5.42
2024-04-23T23:54:22.728Z,5.34
2024-04-23T23:57:25.130Z,5.40
